sensor_id;sensor_type;location;lat;lon;timestamp;P1;durP1;ratioP1;P2;durP2;ratioP2
15183;SDS011;7693;49.266;7.104;2023-04-10T04:33:13;11.30;;;10.27;;
15183;SDS011;7693;49.266;7.104;2023-04-10T04:35:38;10.97;;;9.93;;
15183;SDS011;7693;49.266;7.104;2023-04-10T04:38:04;11.17;;;10.10;;
15183;SDS011;7693;49.266;7.104;2023-04-10T04:40:30;10.27;;;9.27;;
15183;SDS011;7693;49.266;7.104;2023-04-10T04:42:55;10.93;;;9.83;;
15183;SDS011;7693;49.266;7.104;2023-04-10T04:45:21;10.23;;;9.33;;
15183;SDS011;7693;49.266;7.104;2023-04-10T04:47:46;9.67;;;8.77;;
15183;SDS011;7693;49.266;7.104;2023-04-10T04:50:12;9.77;;;8.80;;
15183;SDS011;7693;49.266;7.104;2023-04-10T04:52:37;11.40;;;10.13;;
15183;SDS011;7693;49.266;7.104;2023-04-10T04:55:03;10.93;;;9.93;;
15183;SDS011;7693;49.266;7.104;2023-04-10T04:57:29;11.43;;;9.20;;
15183;SDS011;7693;49.266;7.104;2023-04-10T04:59:54;10.67;;;9.40;;
15183;SDS011;7693;49.266;7.104;2023-04-10T05:02:20;10.60;;;9.60;;
15183;SDS011;7693;49.266;7.104;2023-04-10T05:04:46;10.37;;;9.37;;
15183;SDS011;7693;49.266;7.104;2023-04-10T05:07:12;12.27;;;11.03;;
15183;SDS011;7693;49.266;7.104;2023-04-10T05:09:38;10.63;;;9.63;;
15183;SDS011;7693;49.266;7.104;2023-04-10T05:12:04;10.97;;;9.90;;
15183;SDS011;7693;49.266;7.104;2023-04-10T05:14:30;12.03;;;9.40;;
15183;SDS011;7693;49.266;7.104;2023-04-10T05:16:55;9.87;;;8.77;;
15183;SDS011;7693;49.266;7.104;2023-04-10T05:19:21;9.80;;;8.90;;
15183;SDS011;7693;49.266;7.104;2023-04-10T05:21:47;17.23;;;11.93;;
15183;SDS011;7693;49.266;7.104;2023-04-10T05:24:12;10.40;;;9.23;;
15183;SDS011;7693;49.266;7.104;2023-04-10T05:26:38;9.53;;;8.73;;
15183;SDS011;7693;49.266;7.104;2023-04-10T05:29:05;11.23;;;10.03;;
15183;SDS011;7693;49.266;7.104;2023-04-10T05:31:31;11.03;;;9.83;;
15183;SDS011;7693;49.266;7.104;2023-04-10T05:33:56;10.53;;;9.43;;
15183;SDS011;7693;49.266;7.104;2023-04-10T05:36:22;10.07;;;9.17;;
15183;SDS011;7693;49.266;7.104;2023-04-10T05:38:47;9.87;;;8.97;;
15183;SDS011;7693;49.266;7.104;2023-04-10T05:41:13;12.10;;;9.63;;
15183;SDS011;7693;49.266;7.104;2023-04-10T05:43:38;10.03;;;9.13;;
15183;SDS011;7693;49.266;7.104;2023-04-10T05:46:04;10.57;;;9.50;;
15183;SDS011;7693;49.266;7.104;2023-04-10T05:48:30;9.97;;;9.00;;
15183;SDS011;7693;49.266;7.104;2023-04-10T05:50:55;9.53;;;8.73;;
15183;SDS011;7693;49.266;7.104;2023-04-10T05:53:26;10.03;;;9.13;;
15183;SDS011;7693;49.266;7.104;2023-04-10T05:55:55;11.90;;;9.07;;
15183;SDS011;7693;49.266;7.104;2023-04-10T05:58:21;9.07;;;8.33;;
15183;SDS011;7693;49.266;7.104;2023-04-10T06:00:46;10.37;;;9.47;;
15183;SDS011;7693;49.266;7.104;2023-04-10T06:03:12;9.30;;;8.40;;
15183;SDS011;7693;49.266;7.104;2023-04-10T06:05:37;11.63;;;9.33;;
15183;SDS011;7693;49.266;7.104;2023-04-10T06:08:05;9.40;;;8.70;;
15183;SDS011;7693;49.266;7.104;2023-04-10T06:10:31;10.00;;;9.10;;
15183;SDS011;7693;49.266;7.104;2023-04-10T06:12:57;10.10;;;9.30;;
15183;SDS011;7693;49.266;7.104;2023-04-10T06:15:22;10.67;;;9.60;;
15183;SDS011;7693;49.266;7.104;2023-04-10T06:17:48;10.80;;;9.70;;
15183;SDS011;7693;49.266;7.104;2023-04-10T06:20:13;10.83;;;9.87;;
15183;SDS011;7693;49.266;7.104;2023-04-10T06:22:39;10.93;;;9.83;;
15183;SDS011;7693;49.266;7.104;2023-04-10T06:25:05;10.43;;;9.43;;
15183;SDS011;7693;49.266;7.104;2023-04-10T06:27:30;10.33;;;9.43;;
15183;SDS011;7693;49.266;7.104;2023-04-10T06:29:57;11.57;;;10.47;;
15183;SDS011;7693;49.266;7.104;2023-04-10T06:32:23;11.13;;;10.10;;
15183;SDS011;7693;49.266;7.104;2023-04-10T06:34:48;11.27;;;10.23;;
15183;SDS011;7693;49.266;7.104;2023-04-10T06:37:14;15.47;;;13.07;;
15183;SDS011;7693;49.266;7.104;2023-04-10T06:39:40;14.00;;;12.60;;
15183;SDS011;7693;49.266;7.104;2023-04-10T06:42:06;10.33;;;9.27;;
15183;SDS011;7693;49.266;7.104;2023-04-10T06:44:31;10.90;;;9.90;;
15183;SDS011;7693;49.266;7.104;2023-04-10T06:46:57;14.33;;;12.87;;
15183;SDS011;7693;49.266;7.104;2023-04-10T06:49:22;9.90;;;8.90;;
15183;SDS011;7693;49.266;7.104;2023-04-10T06:51:48;10.47;;;9.53;;
15183;SDS011;7693;49.266;7.104;2023-04-10T06:54:13;10.70;;;9.80;;
15183;SDS011;7693;49.266;7.104;2023-04-10T06:56:39;10.90;;;9.90;;
15183;SDS011;7693;49.266;7.104;2023-04-10T06:59:05;10.07;;;9.17;;
15183;SDS011;7693;49.266;7.104;2023-04-10T07:01:30;9.50;;;8.73;;
15183;SDS011;7693;49.266;7.104;2023-04-10T07:03:56;10.00;;;9.13;;
15183;SDS011;7693;49.266;7.104;2023-04-10T07:06:21;10.77;;;9.67;;
15183;SDS011;7693;49.266;7.104;2023-04-10T07:08:47;9.33;;;8.60;;
15183;SDS011;7693;49.266;7.104;2023-04-10T07:11:13;10.33;;;9.43;;
15183;SDS011;7693;49.266;7.104;2023-04-10T07:13:39;9.37;;;8.57;;
15183;SDS011;7693;49.266;7.104;2023-04-10T07:16:05;9.30;;;8.40;;
15183;SDS011;7693;49.266;7.104;2023-04-10T07:18:34;9.13;;;8.43;;
15183;SDS011;7693;49.266;7.104;2023-04-10T07:21:06;9.20;;;8.43;;
15183;SDS011;7693;49.266;7.104;2023-04-10T07:23:34;7.73;;;7.03;;
15183;SDS011;7693;49.266;7.104;2023-04-10T07:26:00;8.17;;;7.47;;
15183;SDS011;7693;49.266;7.104;2023-04-10T07:28:25;8.53;;;7.80;;
15183;SDS011;7693;49.266;7.104;2023-04-10T07:30:51;8.27;;;7.67;;
15183;SDS011;7693;49.266;7.104;2023-04-10T07:33:17;7.73;;;7.13;;
15183;SDS011;7693;49.266;7.104;2023-04-10T07:35:42;8.33;;;7.70;;
15183;SDS011;7693;49.266;7.104;2023-04-10T07:38:08;8.07;;;7.47;;
15183;SDS011;7693;49.266;7.104;2023-04-10T07:40:35;7.47;;;6.87;;
15183;SDS011;7693;49.266;7.104;2023-04-10T07:43:01;7.80;;;7.30;;
15183;SDS011;7693;49.266;7.104;2023-04-10T07:45:26;6.97;;;6.53;;
15183;SDS011;7693;49.266;7.104;2023-04-10T07:47:52;8.30;;;6.73;;
15183;SDS011;7693;49.266;7.104;2023-04-10T07:50:18;7.73;;;7.23;;
15183;SDS011;7693;49.266;7.104;2023-04-10T07:52:43;7.77;;;7.17;;
15183;SDS011;7693;49.266;7.104;2023-04-10T07:55:09;7.10;;;6.60;;
15183;SDS011;7693;49.266;7.104;2023-04-10T07:57:34;8.33;;;7.63;;
15183;SDS011;7693;49.266;7.104;2023-04-10T08:00:00;7.30;;;6.70;;
15183;SDS011;7693;49.266;7.104;2023-04-10T08:02:26;7.20;;;6.67;;
15183;SDS011;7693;49.266;7.104;2023-04-10T08:04:52;7.30;;;6.67;;
15183;SDS011;7693;49.266;7.104;2023-04-10T08:07:18;7.17;;;6.67;;
15183;SDS011;7693;49.266;7.104;2023-04-10T08:09:46;6.87;;;6.27;;
15183;SDS011;7693;49.266;7.104;2023-04-10T08:12:11;6.17;;;5.77;;
15183;SDS011;7693;49.266;7.104;2023-04-10T08:14:37;6.70;;;6.20;;
15183;SDS011;7693;49.266;7.104;2023-04-10T08:17:02;8.23;;;7.53;;
15183;SDS011;7693;49.266;7.104;2023-04-10T08:19:28;7.27;;;6.73;;
15183;SDS011;7693;49.266;7.104;2023-04-10T08:21:54;6.20;;;5.80;;
15183;SDS011;7693;49.266;7.104;2023-04-10T08:24:19;6.40;;;6.00;;
15183;SDS011;7693;49.266;7.104;2023-04-10T08:26:46;6.50;;;6.07;;
15183;SDS011;7693;49.266;7.104;2023-04-10T08:29:12;9.23;;;8.47;;
15183;SDS011;7693;49.266;7.104;2023-04-10T08:31:38;6.00;;;5.60;;
15183;SDS011;7693;49.266;7.104;2023-04-10T08:34:04;6.73;;;6.23;;
15183;SDS011;7693;49.266;7.104;2023-04-10T08:36:29;6.60;;;6.20;;
15183;SDS011;7693;49.266;7.104;2023-04-10T08:38:55;6.50;;;5.93;;
15183;SDS011;7693;49.266;7.104;2023-04-10T08:41:21;6.43;;;5.93;;
15183;SDS011;7693;49.266;7.104;2023-04-10T08:43:46;6.23;;;5.70;;
15183;SDS011;7693;49.266;7.104;2023-04-10T08:46:13;5.70;;;5.40;;
15183;SDS011;7693;49.266;7.104;2023-04-10T08:51:19;5.80;;;5.50;;
15183;SDS011;7693;49.266;7.104;2023-04-10T08:53:47;5.77;;;5.43;;
15183;SDS011;7693;49.266;7.104;2023-04-10T08:56:15;5.50;;;5.20;;
15183;SDS011;7693;49.266;7.104;2023-04-10T08:58:42;5.50;;;5.20;;
15183;SDS011;7693;49.266;7.104;2023-04-10T09:01:08;5.43;;;5.13;;
15183;SDS011;7693;49.266;7.104;2023-04-10T09:03:35;5.23;;;5.03;;
15183;SDS011;7693;49.266;7.104;2023-04-10T09:06:02;5.27;;;4.97;;
15183;SDS011;7693;49.266;7.104;2023-04-10T09:08:28;5.33;;;5.03;;
15183;SDS011;7693;49.266;7.104;2023-04-10T09:10:54;4.80;;;4.47;;
15183;SDS011;7693;49.266;7.104;2023-04-10T09:13:36;4.97;;;4.77;;
15183;SDS011;7693;49.266;7.104;2023-04-10T09:16:03;4.73;;;4.53;;
15183;SDS011;7693;49.266;7.104;2023-04-10T09:18:48;4.87;;;4.67;;
15183;SDS011;7693;49.266;7.104;2023-04-10T09:21:18;4.60;;;4.40;;
15183;SDS011;7693;49.266;7.104;2023-04-10T09:23:45;4.57;;;4.37;;
15183;SDS011;7693;49.266;7.104;2023-04-10T09:28:58;4.77;;;4.47;;
15183;SDS011;7693;49.266;7.104;2023-04-10T09:31:32;4.90;;;4.60;;
15183;SDS011;7693;49.266;7.104;2023-04-10T09:34:50;4.60;;;4.40;;
15183;SDS011;7693;49.266;7.104;2023-04-10T09:36:55;4.23;;;4.07;;
15183;SDS011;7693;49.266;7.104;2023-04-10T09:42:00;4.40;;;4.10;;
15183;SDS011;7693;49.266;7.104;2023-04-10T09:44:29;4.40;;;4.20;;
15183;SDS011;7693;49.266;7.104;2023-04-10T09:46:57;3.53;;;3.43;;
15183;SDS011;7693;49.266;7.104;2023-04-10T09:49:23;3.53;;;3.43;;
15183;SDS011;7693;49.266;7.104;2023-04-10T09:51:49;4.50;;;4.13;;
15183;SDS011;7693;49.266;7.104;2023-04-10T09:54:15;3.20;;;3.10;;
15183;SDS011;7693;49.266;7.104;2023-04-10T09:56:40;3.40;;;3.30;;
15183;SDS011;7693;49.266;7.104;2023-04-10T09:59:09;3.77;;;3.57;;
15183;SDS011;7693;49.266;7.104;2023-04-10T12:22:44;3.38;;;3.28;;
15183;SDS011;7693;49.266;7.104;2023-04-10T12:25:11;3.38;;;3.28;;
15183;SDS011;7693;49.266;7.104;2023-04-10T12:27:36;3.40;;;3.30;;
15183;SDS011;7693;49.266;7.104;2023-04-10T12:30:05;3.20;;;3.10;;
15183;SDS011;7693;49.266;7.104;2023-04-10T12:32:32;2.97;;;2.88;;
15183;SDS011;7693;49.266;7.104;2023-04-10T12:34:58;3.20;;;3.10;;
15183;SDS011;7693;49.266;7.104;2023-04-10T12:40:12;3.42;;;3.33;;
15183;SDS011;7693;49.266;7.104;2023-04-10T12:42:41;3.45;;;3.35;;
15183;SDS011;7693;49.266;7.104;2023-04-10T12:45:07;3.08;;;2.97;;
15183;SDS011;7693;49.266;7.104;2023-04-10T12:47:42;2.80;;;2.70;;
15183;SDS011;7693;49.266;7.104;2023-04-10T12:50:17;3.00;;;2.90;;
15183;SDS011;7693;49.266;7.104;2023-04-10T12:52:44;2.80;;;2.70;;
15183;SDS011;7693;49.266;7.104;2023-04-10T12:55:25;2.58;;;2.47;;
15183;SDS011;7693;49.266;7.104;2023-04-10T12:57:50;3.40;;;3.20;;
15183;SDS011;7693;49.266;7.104;2023-04-10T13:00:17;2.78;;;2.58;;
15183;SDS011;7693;49.266;7.104;2023-04-10T13:02:43;2.85;;;2.75;;
15183;SDS011;7693;49.266;7.104;2023-04-10T13:05:10;2.50;;;2.40;;
15183;SDS011;7693;49.266;7.104;2023-04-10T13:07:36;2.30;;;2.20;;
15183;SDS011;7693;49.266;7.104;2023-04-10T13:10:02;2.28;;;2.17;;
15183;SDS011;7693;49.266;7.104;2023-04-10T13:12:29;2.50;;;2.40;;
15183;SDS011;7693;49.266;7.104;2023-04-10T13:14:55;2.05;;;2.00;;
15183;SDS011;7693;49.266;7.104;2023-04-10T13:17:21;2.22;;;2.17;;
15183;SDS011;7693;49.266;7.104;2023-04-10T13:19:48;1.98;;;1.95;;
15183;SDS011;7693;49.266;7.104;2023-04-10T13:22:14;2.00;;;2.00;;
15183;SDS011;7693;49.266;7.104;2023-04-10T13:24:40;2.17;;;2.05;;
15183;SDS011;7693;49.266;7.104;2023-04-10T13:27:06;2.30;;;2.20;;
15183;SDS011;7693;49.266;7.104;2023-04-10T13:29:33;1.90;;;1.90;;
15183;SDS011;7693;49.266;7.104;2023-04-10T13:31:59;2.10;;;2.08;;
15183;SDS011;7693;49.266;7.104;2023-04-10T13:34:27;1.90;;;1.90;;
15183;SDS011;7693;49.266;7.104;2023-04-10T13:36:53;2.00;;;1.90;;
15183;SDS011;7693;49.266;7.104;2023-04-10T13:39:19;2.10;;;2.10;;
15183;SDS011;7693;49.266;7.104;2023-04-10T13:41:44;2.58;;;2.45;;
15183;SDS011;7693;49.266;7.104;2023-04-10T13:44:10;2.20;;;2.10;;
15183;SDS011;7693;49.266;7.104;2023-04-10T13:46:35;2.03;;;2.03;;
15183;SDS011;7693;49.266;7.104;2023-04-10T13:49:01;2.30;;;2.28;;
15183;SDS011;7693;49.266;7.104;2023-04-10T13:51:26;1.90;;;1.90;;
15183;SDS011;7693;49.266;7.104;2023-04-10T13:53:53;2.00;;;2.00;;
15183;SDS011;7693;49.266;7.104;2023-04-10T13:56:19;2.42;;;2.33;;
15183;SDS011;7693;49.266;7.104;2023-04-10T13:58:45;3.28;;;3.17;;
15183;SDS011;7693;49.266;7.104;2023-04-10T14:01:11;2.20;;;2.10;;
15183;SDS011;7693;49.266;7.104;2023-04-10T14:03:37;2.30;;;2.25;;
15183;SDS011;7693;49.266;7.104;2023-04-10T14:06:02;2.30;;;2.25;;
15183;SDS011;7693;49.266;7.104;2023-04-10T14:08:28;2.10;;;2.00;;
15183;SDS011;7693;49.266;7.104;2023-04-10T14:10:54;1.98;;;1.98;;
15183;SDS011;7693;49.266;7.104;2023-04-10T14:13:20;2.45;;;2.35;;
15183;SDS011;7693;49.266;7.104;2023-04-10T14:15:45;5.13;;;4.80;;
15183;SDS011;7693;49.266;7.104;2023-04-10T14:18:11;3.08;;;2.92;;
15183;SDS011;7693;49.266;7.104;2023-04-10T14:20:38;2.20;;;2.20;;
15183;SDS011;7693;49.266;7.104;2023-04-10T14:23:06;4.13;;;3.92;;
15183;SDS011;7693;49.266;7.104;2023-04-10T14:25:32;2.50;;;2.40;;
15183;SDS011;7693;49.266;7.104;2023-04-10T14:27:57;2.50;;;2.33;;
15183;SDS011;7693;49.266;7.104;2023-04-10T14:30:23;2.25;;;2.22;;
15183;SDS011;7693;49.266;7.104;2023-04-10T14:32:52;2.78;;;2.67;;
15183;SDS011;7693;49.266;7.104;2023-04-10T14:35:18;2.15;;;2.10;;
15183;SDS011;7693;49.266;7.104;2023-04-10T14:37:44;2.75;;;2.40;;
15183;SDS011;7693;49.266;7.104;2023-04-10T14:40:10;2.20;;;2.10;;
15183;SDS011;7693;49.266;7.104;2023-04-10T14:42:35;2.35;;;2.25;;
15183;SDS011;7693;49.266;7.104;2023-04-10T14:45:01;2.20;;;2.10;;
15183;SDS011;7693;49.266;7.104;2023-04-10T14:47:27;2.80;;;2.70;;
15183;SDS011;7693;49.266;7.104;2023-04-10T14:49:52;2.08;;;2.08;;
15183;SDS011;7693;49.266;7.104;2023-04-10T14:52:18;2.50;;;2.40;;
15183;SDS011;7693;49.266;7.104;2023-04-10T14:54:43;1.85;;;1.85;;
15183;SDS011;7693;49.266;7.104;2023-04-10T14:57:09;4.20;;;2.70;;
15183;SDS011;7693;49.266;7.104;2023-04-10T14:59:36;2.47;;;2.33;;
15183;SDS011;7693;49.266;7.104;2023-04-10T15:02:01;2.20;;;2.20;;
15183;SDS011;7693;49.266;7.104;2023-04-10T15:04:27;5.28;;;4.93;;
15183;SDS011;7693;49.266;7.104;2023-04-10T15:06:53;2.10;;;2.10;;
15183;SDS011;7693;49.266;7.104;2023-04-10T15:09:18;2.42;;;2.40;;
15183;SDS011;7693;49.266;7.104;2023-04-10T15:11:44;3.55;;;3.25;;
15183;SDS011;7693;49.266;7.104;2023-04-10T15:14:11;2.38;;;2.38;;
15183;SDS011;7693;49.266;7.104;2023-04-10T15:16:36;2.78;;;2.67;;
15183;SDS011;7693;49.266;7.104;2023-04-10T15:19:02;2.55;;;2.45;;
15183;SDS011;7693;49.266;7.104;2023-04-10T15:21:27;2.35;;;2.28;;
15183;SDS011;7693;49.266;7.104;2023-04-10T15:23:53;2.40;;;2.30;;
15183;SDS011;7693;49.266;7.104;2023-04-10T15:26:19;2.50;;;2.40;;
15183;SDS011;7693;49.266;7.104;2023-04-10T15:28:45;2.30;;;2.30;;
15183;SDS011;7693;49.266;7.104;2023-04-10T15:31:11;2.60;;;2.50;;
15183;SDS011;7693;49.266;7.104;2023-04-10T15:33:37;2.70;;;2.50;;
15183;SDS011;7693;49.266;7.104;2023-04-10T15:36:04;2.20;;;2.20;;
15183;SDS011;7693;49.266;7.104;2023-04-10T15:38:32;2.55;;;2.45;;
15183;SDS011;7693;49.266;7.104;2023-04-10T15:40:59;2.45;;;2.42;;
15183;SDS011;7693;49.266;7.104;2023-04-10T15:43:25;2.08;;;2.03;;
15183;SDS011;7693;49.266;7.104;2023-04-10T15:45:50;2.30;;;2.20;;
15183;SDS011;7693;49.266;7.104;2023-04-10T15:48:16;2.72;;;2.63;;
15183;SDS011;7693;49.266;7.104;2023-04-10T15:50:42;2.33;;;2.22;;
15183;SDS011;7693;49.266;7.104;2023-04-10T15:53:07;5.65;;;2.33;;
15183;SDS011;7693;49.266;7.104;2023-04-10T15:55:37;2.15;;;2.05;;
15183;SDS011;7693;49.266;7.104;2023-04-10T15:58:04;2.00;;;2.00;;
15183;SDS011;7693;49.266;7.104;2023-04-10T16:00:30;2.50;;;2.20;;
15183;SDS011;7693;49.266;7.104;2023-04-10T16:02:55;2.17;;;2.00;;
15183;SDS011;7693;49.266;7.104;2023-04-10T16:05:21;2.17;;;2.08;;
15183;SDS011;7693;49.266;7.104;2023-04-10T16:07:46;2.30;;;2.20;;
15183;SDS011;7693;49.266;7.104;2023-04-10T16:10:12;2.03;;;2.03;;
15183;SDS011;7693;49.266;7.104;2023-04-10T16:12:37;2.10;;;2.08;;
15183;SDS011;7693;49.266;7.104;2023-04-10T16:15:04;2.33;;;2.05;;
15183;SDS011;7693;49.266;7.104;2023-04-10T16:17:32;2.53;;;2.42;;
15183;SDS011;7693;49.266;7.104;2023-04-10T16:19:58;2.55;;;2.45;;
15183;SDS011;7693;49.266;7.104;2023-04-10T16:22:24;2.42;;;2.13;;
15183;SDS011;7693;49.266;7.104;2023-04-10T16:24:55;2.35;;;2.25;;
15183;SDS011;7693;49.266;7.104;2023-04-10T16:27:20;2.20;;;2.20;;
15183;SDS011;7693;49.266;7.104;2023-04-10T16:29:46;2.65;;;2.45;;
15183;SDS011;7693;49.266;7.104;2023-04-10T16:32:11;2.30;;;2.30;;
15183;SDS011;7693;49.266;7.104;2023-04-10T16:34:37;3.03;;;2.80;;
15183;SDS011;7693;49.266;7.104;2023-04-10T16:37:03;4.85;;;3.40;;
15183;SDS011;7693;49.266;7.104;2023-04-10T16:39:28;2.38;;;2.35;;
15183;SDS011;7693;49.266;7.104;2023-04-10T16:41:54;2.42;;;2.33;;
15183;SDS011;7693;49.266;7.104;2023-04-10T16:44:20;3.28;;;3.17;;
15183;SDS011;7693;49.266;7.104;2023-04-10T16:46:45;4.13;;;3.67;;
15183;SDS011;7693;49.266;7.104;2023-04-10T16:49:11;2.88;;;2.78;;
15183;SDS011;7693;49.266;7.104;2023-04-10T16:51:36;2.47;;;2.38;;
15183;SDS011;7693;49.266;7.104;2023-04-10T16:54:02;7.28;;;6.75;;
15183;SDS011;7693;49.266;7.104;2023-04-10T16:56:29;2.70;;;2.60;;
15183;SDS011;7693;49.266;7.104;2023-04-10T16:58:55;2.78;;;2.67;;
15183;SDS011;7693;49.266;7.104;2023-04-10T17:01:21;2.72;;;2.60;;
15183;SDS011;7693;49.266;7.104;2023-04-10T17:03:49;3.00;;;2.88;;
15183;SDS011;7693;49.266;7.104;2023-04-10T17:06:14;2.55;;;2.45;;
15183;SDS011;7693;49.266;7.104;2023-04-10T17:08:40;3.30;;;3.20;;
15183;SDS011;7693;49.266;7.104;2023-04-10T17:11:06;2.70;;;2.60;;
15183;SDS011;7693;49.266;7.104;2023-04-10T17:13:32;2.80;;;2.70;;
15183;SDS011;7693;49.266;7.104;2023-04-10T17:15:59;4.22;;;4.03;;
15183;SDS011;7693;49.266;7.104;2023-04-10T17:18:25;2.83;;;2.72;;
15183;SDS011;7693;49.266;7.104;2023-04-10T17:20:51;3.58;;;3.28;;
15183;SDS011;7693;49.266;7.104;2023-04-10T17:23:16;3.33;;;3.13;;
15183;SDS011;7693;49.266;7.104;2023-04-10T17:25:42;3.15;;;3.05;;
15183;SDS011;7693;49.266;7.104;2023-04-10T17:28:07;3.30;;;3.20;;
15183;SDS011;7693;49.266;7.104;2023-04-10T17:30:33;3.05;;;2.83;;
15183;SDS011;7693;49.266;7.104;2023-04-10T17:32:59;3.13;;;3.03;;
15183;SDS011;7693;49.266;7.104;2023-04-10T17:35:24;3.80;;;3.10;;
15183;SDS011;7693;49.266;7.104;2023-04-10T17:37:50;3.30;;;3.20;;
15183;SDS011;7693;49.266;7.104;2023-04-10T17:40:16;3.20;;;3.10;;
15183;SDS011;7693;49.266;7.104;2023-04-10T17:42:42;3.10;;;3.00;;
15183;SDS011;7693;49.266;7.104;2023-04-10T17:45:08;3.13;;;2.97;;
15183;SDS011;7693;49.266;7.104;2023-04-10T17:47:37;3.38;;;3.28;;
15183;SDS011;7693;49.266;7.104;2023-04-10T17:50:04;3.22;;;3.00;;
15183;SDS011;7693;49.266;7.104;2023-04-10T17:52:30;4.88;;;4.47;;
15183;SDS011;7693;49.266;7.104;2023-04-10T17:54:55;3.10;;;3.00;;
15183;SDS011;7693;49.266;7.104;2023-04-10T17:57:21;5.93;;;5.38;;
15183;SDS011;7693;49.266;7.104;2023-04-10T17:59:46;3.30;;;3.20;;
15183;SDS011;7693;49.266;7.104;2023-04-10T18:02:12;3.35;;;3.13;;
15183;SDS011;7693;49.266;7.104;2023-04-10T18:04:38;3.65;;;3.17;;
15183;SDS011;7693;49.266;7.104;2023-04-10T18:07:03;2.97;;;2.88;;
15183;SDS011;7693;49.266;7.104;2023-04-10T18:09:29;3.30;;;3.20;;
15183;SDS011;7693;49.266;7.104;2023-04-10T18:11:55;3.20;;;3.00;;
15183;SDS011;7693;49.266;7.104;2023-04-10T18:14:20;3.42;;;3.30;;
15183;SDS011;7693;49.266;7.104;2023-04-10T18:16:46;3.08;;;2.97;;
15183;SDS011;7693;49.266;7.104;2023-04-10T18:19:12;2.88;;;2.78;;
15183;SDS011;7693;49.266;7.104;2023-04-10T18:21:38;3.63;;;3.53;;
15183;SDS011;7693;49.266;7.104;2023-04-10T18:24:06;42.30;;;22.13;;
15183;SDS011;7693;49.266;7.104;2023-04-10T18:26:34;6.67;;;5.00;;
15183;SDS011;7693;49.266;7.104;2023-04-10T18:29:00;4.90;;;4.43;;
15183;SDS011;7693;49.266;7.104;2023-04-10T18:31:26;3.63;;;3.50;;
15183;SDS011;7693;49.266;7.104;2023-04-10T18:33:51;3.92;;;3.67;;
15183;SDS011;7693;49.266;7.104;2023-04-10T18:36:17;3.80;;;3.60;;
15183;SDS011;7693;49.266;7.104;2023-04-10T18:38:45;3.20;;;3.10;;
15183;SDS011;7693;49.266;7.104;2023-04-10T18:41:15;3.60;;;3.50;;
15183;SDS011;7693;49.266;7.104;2023-04-10T18:43:40;3.63;;;3.33;;
15183;SDS011;7693;49.266;7.104;2023-04-10T18:46:08;3.20;;;3.10;;
15183;SDS011;7693;49.266;7.104;2023-04-10T18:48:38;3.60;;;3.40;;
15183;SDS011;7693;49.266;7.104;2023-04-10T18:51:05;3.13;;;3.00;;
15183;SDS011;7693;49.266;7.104;2023-04-10T18:53:30;3.20;;;3.10;;
15183;SDS011;7693;49.266;7.104;2023-04-10T18:55:56;3.30;;;3.20;;
15183;SDS011;7693;49.266;7.104;2023-04-10T18:58:21;3.53;;;3.23;;
15183;SDS011;7693;49.266;7.104;2023-04-10T19:00:47;3.67;;;3.40;;
15183;SDS011;7693;49.266;7.104;2023-04-10T19:03:13;3.47;;;3.37;;
15183;SDS011;7693;49.266;7.104;2023-04-10T19:05:40;3.30;;;3.10;;
15183;SDS011;7693;49.266;7.104;2023-04-10T19:08:07;3.27;;;3.07;;
15183;SDS011;7693;49.266;7.104;2023-04-10T19:10:32;3.33;;;3.23;;
15183;SDS011;7693;49.266;7.104;2023-04-10T19:12:58;4.03;;;3.70;;
15183;SDS011;7693;49.266;7.104;2023-04-10T19:15:24;3.40;;;3.20;;
15183;SDS011;7693;49.266;7.104;2023-04-10T19:17:52;3.77;;;3.47;;
15183;SDS011;7693;49.266;7.104;2023-04-10T19:20:18;2.83;;;2.73;;
15183;SDS011;7693;49.266;7.104;2023-04-10T19:22:44;2.97;;;2.87;;
15183;SDS011;7693;49.266;7.104;2023-04-10T19:25:10;3.07;;;2.97;;
15183;SDS011;7693;49.266;7.104;2023-04-10T19:27:36;3.10;;;2.90;;
15183;SDS011;7693;49.266;7.104;2023-04-10T19:30:01;2.93;;;2.73;;
15183;SDS011;7693;49.266;7.104;2023-04-10T19:32:27;3.53;;;3.33;;
15183;SDS011;7693;49.266;7.104;2023-04-10T19:34:52;3.00;;;2.90;;
15183;SDS011;7693;49.266;7.104;2023-04-10T19:37:19;3.00;;;2.80;;
15183;SDS011;7693;49.266;7.104;2023-04-10T19:39:47;3.07;;;2.93;;
15183;SDS011;7693;49.266;7.104;2023-04-10T19:42:13;2.60;;;2.50;;
15183;SDS011;7693;49.266;7.104;2023-04-10T19:44:39;3.10;;;3.00;;
15183;SDS011;7693;49.266;7.104;2023-04-10T19:47:04;2.90;;;2.80;;
15183;SDS011;7693;49.266;7.104;2023-04-10T19:49:30;3.60;;;3.40;;
15183;SDS011;7693;49.266;7.104;2023-04-10T19:51:57;2.73;;;2.63;;
15183;SDS011;7693;49.266;7.104;2023-04-10T19:54:22;3.40;;;3.20;;
15183;SDS011;7693;49.266;7.104;2023-04-10T19:56:48;3.00;;;2.90;;
15183;SDS011;7693;49.266;7.104;2023-04-10T19:59:13;2.90;;;2.80;;
15183;SDS011;7693;49.266;7.104;2023-04-10T20:01:39;3.20;;;3.10;;
15183;SDS011;7693;49.266;7.104;2023-04-10T20:04:04;3.40;;;3.07;;
15183;SDS011;7693;49.266;7.104;2023-04-10T20:06:30;3.13;;;2.80;;
15183;SDS011;7693;49.266;7.104;2023-04-10T20:08:56;3.00;;;2.90;;
15183;SDS011;7693;49.266;7.104;2023-04-10T20:11:21;3.40;;;3.10;;
15183;SDS011;7693;49.266;7.104;2023-04-10T20:13:48;2.70;;;2.60;;
15183;SDS011;7693;49.266;7.104;2023-04-10T20:16:14;3.17;;;3.07;;
15183;SDS011;7693;49.266;7.104;2023-04-10T20:18:40;3.20;;;3.10;;
15183;SDS011;7693;49.266;7.104;2023-04-10T20:21:06;2.73;;;2.63;;
15183;SDS011;7693;49.266;7.104;2023-04-10T20:23:33;2.73;;;2.63;;
15183;SDS011;7693;49.266;7.104;2023-04-10T20:25:58;3.17;;;2.97;;
15183;SDS011;7693;49.266;7.104;2023-04-10T20:28:24;3.20;;;3.10;;
15183;SDS011;7693;49.266;7.104;2023-04-10T20:30:49;2.70;;;2.60;;
15183;SDS011;7693;49.266;7.104;2023-04-10T20:33:15;4.73;;;2.97;;
15183;SDS011;7693;49.266;7.104;2023-04-10T20:35:40;3.37;;;3.13;;
15183;SDS011;7693;49.266;7.104;2023-04-10T20:38:06;3.20;;;3.10;;
15183;SDS011;7693;49.266;7.104;2023-04-10T20:40:32;3.93;;;3.13;;
15183;SDS011;7693;49.266;7.104;2023-04-10T20:42:57;3.57;;;3.27;;
15183;SDS011;7693;49.266;7.104;2023-04-10T20:45:23;3.63;;;3.43;;
15183;SDS011;7693;49.266;7.104;2023-04-10T20:47:48;3.37;;;3.00;;
15183;SDS011;7693;49.266;7.104;2023-04-10T20:50:14;3.50;;;3.30;;
15183;SDS011;7693;49.266;7.104;2023-04-10T20:52:40;3.53;;;3.30;;
15183;SDS011;7693;49.266;7.104;2023-04-10T20:55:05;3.40;;;3.23;;
15183;SDS011;7693;49.266;7.104;2023-04-10T20:57:32;4.00;;;3.60;;
15183;SDS011;7693;49.266;7.104;2023-04-10T20:59:57;4.53;;;4.20;;
15183;SDS011;7693;49.266;7.104;2023-04-10T21:02:23;3.77;;;3.63;;
15183;SDS011;7693;49.266;7.104;2023-04-10T21:04:49;10.23;;;7.60;;
15183;SDS011;7693;49.266;7.104;2023-04-10T21:07:16;3.80;;;3.60;;
15183;SDS011;7693;49.266;7.104;2023-04-10T21:09:41;3.60;;;3.40;;
15183;SDS011;7693;49.266;7.104;2023-04-10T21:12:07;3.43;;;3.23;;
15183;SDS011;7693;49.266;7.104;2023-04-10T21:14:32;3.83;;;3.30;;
15183;SDS011;7693;49.266;7.104;2023-04-10T21:16:59;4.30;;;3.73;;
15183;SDS011;7693;49.266;7.104;2023-04-10T21:19:26;3.60;;;3.50;;
15183;SDS011;7693;49.266;7.104;2023-04-10T21:21:51;3.23;;;3.13;;
15183;SDS011;7693;49.266;7.104;2023-04-10T21:24:17;3.33;;;3.23;;
15183;SDS011;7693;49.266;7.104;2023-04-10T21:26:42;3.37;;;3.27;;
15183;SDS011;7693;49.266;7.104;2023-04-10T21:29:08;3.77;;;3.57;;
15183;SDS011;7693;49.266;7.104;2023-04-10T21:31:34;3.27;;;3.13;;
15183;SDS011;7693;49.266;7.104;2023-04-10T21:33:59;3.73;;;3.37;;
15183;SDS011;7693;49.266;7.104;2023-04-10T21:36:25;3.70;;;3.50;;
15183;SDS011;7693;49.266;7.104;2023-04-10T21:38:51;3.60;;;3.30;;
15183;SDS011;7693;49.266;7.104;2023-04-10T21:41:16;3.40;;;3.30;;
15183;SDS011;7693;49.266;7.104;2023-04-10T21:43:42;3.07;;;2.97;;
15183;SDS011;7693;49.266;7.104;2023-04-10T21:46:08;3.00;;;2.80;;
15183;SDS011;7693;49.266;7.104;2023-04-10T21:48:33;3.00;;;2.80;;
15183;SDS011;7693;49.266;7.104;2023-04-10T21:51:00;4.23;;;2.80;;
15183;SDS011;7693;49.266;7.104;2023-04-10T21:53:26;3.17;;;2.97;;
15183;SDS011;7693;49.266;7.104;2023-04-10T21:55:51;3.07;;;2.90;;